sensor_id;sensor_type;location;lat;lon;timestamp;pressure;altitude;pressure_sealevel;temperature;humidity
49813;BME280;35706;52.100;5.056;2023-07-13T00:00:38;101271.78;;;19.26;76.60
49813;BME280;35706;52.100;5.056;2023-07-13T00:01:39;101273.59;;;19.10;76.96
49813;BME280;35706;52.100;5.056;2023-07-13T00:02:39;101262.09;;;18.95;77.66
49813;BME280;35706;52.100;5.056;2023-07-13T00:03:40;101269.94;;;19.11;77.00
49813;BME280;35706;52.100;5.056;2023-07-13T00:04:41;101267.72;;;19.00;77.23
49813;BME280;35706;52.100;5.056;2023-07-13T00:05:41;101262.75;;;18.97;77.65
49813;BME280;35706;52.100;5.056;2023-07-13T00:06:42;101267.41;;;18.80;78.19
49813;BME280;35706;52.100;5.056;2023-07-13T00:07:44;101276.41;;;18.71;78.84
49813;BME280;35706;52.100;5.056;2023-07-13T00:08:46;101265.03;;;19.00;76.92
49813;BME280;35706;52.100;5.056;2023-07-13T00:09:48;101261.69;;;18.83;77.69
49813;BME280;35706;52.100;5.056;2023-07-13T00:10:48;101260.91;;;18.75;78.08
49813;BME280;35706;52.100;5.056;2023-07-13T00:11:57;101258.47;;;18.50;79.08
49813;BME280;35706;52.100;5.056;2023-07-13T00:12:57;101262.91;;;18.81;77.92
49813;BME280;35706;52.100;5.056;2023-07-13T00:13:58;101248.13;;;18.93;77.29
49813;BME280;35706;52.100;5.056;2023-07-13T00:15:03;101257.56;;;18.81;77.37
49813;BME280;35706;52.100;5.056;2023-07-13T00:16:04;101260.88;;;18.83;77.80
49813;BME280;35706;52.100;5.056;2023-07-13T00:17:04;101252.66;;;18.92;77.46
49813;BME280;35706;52.100;5.056;2023-07-13T00:18:05;101257.25;;;18.99;77.35
49813;BME280;35706;52.100;5.056;2023-07-13T00:19:05;101259.69;;;18.85;78.26
49813;BME280;35706;52.100;5.056;2023-07-13T00:20:07;101261.78;;;18.52;79.18
49813;BME280;35706;52.100;5.056;2023-07-13T00:21:07;101259.19;;;18.44;80.00
49813;BME280;35706;52.100;5.056;2023-07-13T00:22:08;101260.00;;;18.21;80.79
49813;BME280;35706;52.100;5.056;2023-07-13T00:23:08;101261.59;;;18.30;80.83
49813;BME280;35706;52.100;5.056;2023-07-13T00:24:11;101265.59;;;18.26;80.96
49813;BME280;35706;52.100;5.056;2023-07-13T00:25:17;101258.53;;;18.19;81.04
49813;BME280;35706;52.100;5.056;2023-07-13T00:26:17;101262.47;;;18.23;81.20
49813;BME280;35706;52.100;5.056;2023-07-13T00:27:17;101258.88;;;18.39;80.63
49813;BME280;35706;52.100;5.056;2023-07-13T00:28:18;101266.16;;;18.45;80.35
49813;BME280;35706;52.100;5.056;2023-07-13T00:29:19;101259.56;;;18.33;79.95
49813;BME280;35706;52.100;5.056;2023-07-13T00:30:21;101264.63;;;18.50;79.43
49813;BME280;35706;52.100;5.056;2023-07-13T00:31:23;101267.25;;;18.04;80.88
49813;BME280;35706;52.100;5.056;2023-07-13T00:32:24;101262.38;;;18.16;81.00
49813;BME280;35706;52.100;5.056;2023-07-13T00:33:28;101267.09;;;18.29;80.98
49813;BME280;35706;52.100;5.056;2023-07-13T00:34:29;101272.69;;;18.11;80.47
49813;BME280;35706;52.100;5.056;2023-07-13T00:35:30;101269.78;;;17.98;81.55
49813;BME280;35706;52.100;5.056;2023-07-13T00:36:31;101270.25;;;18.01;81.82
49813;BME280;35706;52.100;5.056;2023-07-13T00:37:31;101267.81;;;17.92;81.90
49813;BME280;35706;52.100;5.056;2023-07-13T00:38:32;101264.09;;;18.01;81.38
49813;BME280;35706;52.100;5.056;2023-07-13T00:39:33;101255.22;;;18.17;80.91
49813;BME280;35706;52.100;5.056;2023-07-13T00:40:34;101254.44;;;18.08;80.76
49813;BME280;35706;52.100;5.056;2023-07-13T00:41:34;101257.50;;;17.88;80.90
49813;BME280;35706;52.100;5.056;2023-07-13T00:42:37;101252.19;;;17.88;81.79
49813;BME280;35706;52.100;5.056;2023-07-13T00:43:37;101251.34;;;18.19;79.90
49813;BME280;35706;52.100;5.056;2023-07-13T00:44:38;101251.19;;;18.21;79.76
49813;BME280;35706;52.100;5.056;2023-07-13T00:46:43;101254.44;;;18.08;80.44
49813;BME280;35706;52.100;5.056;2023-07-13T00:47:43;101253.53;;;18.16;80.17
49813;BME280;35706;52.100;5.056;2023-07-13T00:48:45;101255.94;;;18.34;79.37
49813;BME280;35706;52.100;5.056;2023-07-13T00:49:47;101256.25;;;18.30;79.68
49813;BME280;35706;52.100;5.056;2023-07-13T00:50:50;101251.63;;;18.24;79.94
49813;BME280;35706;52.100;5.056;2023-07-13T00:51:55;101267.78;;;18.00;80.71
49813;BME280;35706;52.100;5.056;2023-07-13T00:52:56;101260.53;;;17.85;81.75
49813;BME280;35706;52.100;5.056;2023-07-13T00:54:00;101265.78;;;18.02;81.24
49813;BME280;35706;52.100;5.056;2023-07-13T00:55:03;101257.13;;;18.00;81.36
49813;BME280;35706;52.100;5.056;2023-07-13T00:56:04;101263.56;;;18.05;80.91
49813;BME280;35706;52.100;5.056;2023-07-13T00:57:09;101266.78;;;17.93;81.19
49813;BME280;35706;52.100;5.056;2023-07-13T00:58:11;101263.03;;;18.18;79.58
49813;BME280;35706;52.100;5.056;2023-07-13T00:59:13;101268.38;;;17.70;82.54
49813;BME280;35706;52.100;5.056;2023-07-13T01:00:15;101268.09;;;17.97;81.79
49813;BME280;35706;52.100;5.056;2023-07-13T01:01:17;101279.97;;;17.86;82.30
49813;BME280;35706;52.100;5.056;2023-07-13T01:02:19;101274.53;;;17.63;83.14
49813;BME280;35706;52.100;5.056;2023-07-13T01:03:20;101273.97;;;17.76;82.82
49813;BME280;35706;52.100;5.056;2023-07-13T01:04:24;101274.63;;;17.78;82.77
49813;BME280;35706;52.100;5.056;2023-07-13T01:05:25;101271.53;;;17.74;83.29
49813;BME280;35706;52.100;5.056;2023-07-13T01:06:25;101271.03;;;17.70;83.46
49813;BME280;35706;52.100;5.056;2023-07-13T01:07:26;101270.66;;;17.74;83.23
49813;BME280;35706;52.100;5.056;2023-07-13T01:08:27;101269.19;;;17.71;83.73
49813;BME280;35706;52.100;5.056;2023-07-13T01:09:27;101275.84;;;17.67;83.63
49813;BME280;35706;52.100;5.056;2023-07-13T01:10:28;101275.03;;;17.66;84.16
49813;BME280;35706;52.100;5.056;2023-07-13T01:11:28;101264.59;;;17.57;84.32
49813;BME280;35706;52.100;5.056;2023-07-13T01:12:28;101275.84;;;17.67;84.14
49813;BME280;35706;52.100;5.056;2023-07-13T01:13:29;101272.91;;;17.54;84.79
49813;BME280;35706;52.100;5.056;2023-07-13T01:14:30;101281.16;;;17.67;84.56
49813;BME280;35706;52.100;5.056;2023-07-13T01:15:40;101276.84;;;17.82;83.74
49813;BME280;35706;52.100;5.056;2023-07-13T01:16:42;101275.69;;;17.68;84.25
49813;BME280;35706;52.100;5.056;2023-07-13T01:17:43;101270.53;;;17.67;84.10
49813;BME280;35706;52.100;5.056;2023-07-13T01:18:44;101267.75;;;17.60;84.83
49813;BME280;35706;52.100;5.056;2023-07-13T01:19:45;101276.91;;;17.49;85.34
49813;BME280;35706;52.100;5.056;2023-07-13T01:20:51;101273.28;;;17.42;86.19
49813;BME280;35706;52.100;5.056;2023-07-13T01:21:52;101266.66;;;17.46;85.65
49813;BME280;35706;52.100;5.056;2023-07-13T01:22:53;101273.97;;;17.36;86.28
49813;BME280;35706;52.100;5.056;2023-07-13T01:23:54;101268.66;;;17.76;84.48
49813;BME280;35706;52.100;5.056;2023-07-13T01:24:54;101270.63;;;17.90;83.12
49813;BME280;35706;52.100;5.056;2023-07-13T01:25:55;101270.66;;;17.74;83.91
49813;BME280;35706;52.100;5.056;2023-07-13T01:26:56;101273.72;;;17.62;85.10
49813;BME280;35706;52.100;5.056;2023-07-13T01:27:56;101270.91;;;17.56;85.67
49813;BME280;35706;52.100;5.056;2023-07-13T01:28:56;101274.47;;;17.87;83.84
49813;BME280;35706;52.100;5.056;2023-07-13T01:29:57;101281.63;;;17.87;83.69
49813;BME280;35706;52.100;5.056;2023-07-13T01:31:04;101276.78;;;17.90;83.46
49813;BME280;35706;52.100;5.056;2023-07-13T01:32:05;101282.09;;;17.90;84.09
49813;BME280;35706;52.100;5.056;2023-07-13T01:33:08;101276.78;;;17.90;83.85
49813;BME280;35706;52.100;5.056;2023-07-13T01:34:10;101282.84;;;17.68;85.15
49813;BME280;35706;52.100;5.056;2023-07-13T01:35:10;101287.34;;;17.67;84.88
49813;BME280;35706;52.100;5.056;2023-07-13T01:36:12;101278.06;;;17.55;86.03
49813;BME280;35706;52.100;5.056;2023-07-13T01:37:14;101285.16;;;17.63;85.90
49813;BME280;35706;52.100;5.056;2023-07-13T01:38:16;101285.25;;;17.46;86.54
49813;BME280;35706;52.100;5.056;2023-07-13T01:39:17;101280.88;;;17.62;85.71
49813;BME280;35706;52.100;5.056;2023-07-13T01:40:18;101279.56;;;17.58;85.93
49813;BME280;35706;52.100;5.056;2023-07-13T01:41:18;101285.81;;;17.65;85.77
49813;BME280;35706;52.100;5.056;2023-07-13T01:42:19;101289.22;;;17.50;86.38
49813;BME280;35706;52.100;5.056;2023-07-13T01:43:19;101286.78;;;17.24;87.69
49813;BME280;35706;52.100;5.056;2023-07-13T01:44:20;101283.06;;;17.42;87.18
49813;BME280;35706;52.100;5.056;2023-07-13T01:45:20;101280.88;;;17.62;86.23
49813;BME280;35706;52.100;5.056;2023-07-13T01:46:21;101284.06;;;17.49;86.39
49813;BME280;35706;52.100;5.056;2023-07-13T01:47:22;101289.56;;;17.39;86.83
49813;BME280;35706;52.100;5.056;2023-07-13T01:48:23;101287.91;;;17.38;87.34
49813;BME280;35706;52.100;5.056;2023-07-13T01:49:24;101294.53;;;17.50;86.48
49813;BME280;35706;52.100;5.056;2023-07-13T01:50:25;101298.53;;;17.38;86.91
49813;BME280;35706;52.100;5.056;2023-07-13T01:51:26;101285.81;;;17.73;84.70
49813;BME280;35706;52.100;5.056;2023-07-13T01:52:26;101298.03;;;17.90;83.69
49813;BME280;35706;52.100;5.056;2023-07-13T01:53:26;101291.16;;;17.57;85.90
49813;BME280;35706;52.100;5.056;2023-07-13T01:54:27;101290.00;;;17.67;85.51
49813;BME280;35706;52.100;5.056;2023-07-13T01:55:27;101296.13;;;17.68;85.43
49813;BME280;35706;52.100;5.056;2023-07-13T01:56:28;101281.69;;;17.62;85.47
49813;BME280;35706;52.100;5.056;2023-07-13T01:57:28;101294.56;;;17.42;86.08
49813;BME280;35706;52.100;5.056;2023-07-13T01:58:29;101300.53;;;17.36;86.58
49813;BME280;35706;52.100;5.056;2023-07-13T01:59:29;101298.88;;;17.35;86.74
49813;BME280;35706;52.100;5.056;2023-07-13T02:00:29;101298.00;;;17.51;86.30
49813;BME280;35706;52.100;5.056;2023-07-13T02:01:30;101299.69;;;17.44;86.63
49813;BME280;35706;52.100;5.056;2023-07-13T02:02:31;101299.22;;;17.32;86.87
49813;BME280;35706;52.100;5.056;2023-07-13T02:03:31;101299.50;;;17.45;86.33
49813;BME280;35706;52.100;5.056;2023-07-13T02:04:31;101296.88;;;17.29;86.76
49813;BME280;35706;52.100;5.056;2023-07-13T02:05:32;101295.75;;;17.23;87.18
49813;BME280;35706;52.100;5.056;2023-07-13T02:06:33;101291.25;;;17.40;86.29
49813;BME280;35706;52.100;5.056;2023-07-13T02:07:33;101291.38;;;17.47;85.74
49813;BME280;35706;52.100;5.056;2023-07-13T02:08:33;101299.22;;;17.32;86.57
49813;BME280;35706;52.100;5.056;2023-07-13T02:09:34;101288.59;;;17.32;86.27
49813;BME280;35706;52.100;5.056;2023-07-13T02:10:36;101287.25;;;17.44;86.19
49813;BME280;35706;52.100;5.056;2023-07-13T02:11:37;101293.25;;;17.30;86.85
49813;BME280;35706;52.100;5.056;2023-07-13T02:12:38;101293.75;;;17.34;86.92
49813;BME280;35706;52.100;5.056;2023-07-13T02:13:39;101297.59;;;17.15;87.63
49813;BME280;35706;52.100;5.056;2023-07-13T02:14:39;101299.59;;;17.21;87.87
49813;BME280;35706;52.100;5.056;2023-07-13T02:15:40;101294.75;;;17.24;87.50
49813;BME280;35706;52.100;5.056;2023-07-13T02:16:43;101302.56;;;17.01;88.65
49813;BME280;35706;52.100;5.056;2023-07-13T02:17:43;101300.91;;;17.17;88.19
49813;BME280;35706;52.100;5.056;2023-07-13T02:18:44;101301.88;;;17.24;87.67
49813;BME280;35706;52.100;5.056;2023-07-13T02:19:44;101306.00;;;17.43;86.21
49813;BME280;35706;52.100;5.056;2023-07-13T02:20:44;101298.69;;;17.53;85.79
49813;BME280;35706;52.100;5.056;2023-07-13T02:21:45;101309.22;;;17.14;88.10
49813;BME280;35706;52.100;5.056;2023-07-13T02:22:45;101305.72;;;17.29;87.96
49813;BME280;35706;52.100;5.056;2023-07-13T02:23:46;101300.41;;;17.21;88.20
49813;BME280;35706;52.100;5.056;2023-07-13T02:24:46;101293.56;;;17.27;88.09
49813;BME280;35706;52.100;5.056;2023-07-13T02:25:47;101294.22;;;17.29;87.72
49813;BME280;35706;52.100;5.056;2023-07-13T02:26:47;101296.75;;;17.22;88.26
49813;BME280;35706;52.100;5.056;2023-07-13T02:27:48;101297.53;;;17.31;88.03
49813;BME280;35706;52.100;5.056;2023-07-13T02:28:48;101301.41;;;17.12;89.01
49813;BME280;35706;52.100;5.056;2023-07-13T02:29:49;101304.75;;;17.06;89.59
49813;BME280;35706;52.100;5.056;2023-07-13T02:30:51;101303.72;;;17.15;89.30
49813;BME280;35706;52.100;5.056;2023-07-13T02:31:52;101300.41;;;17.05;89.90
49813;BME280;35706;52.100;5.056;2023-07-13T02:32:52;101298.72;;;17.20;89.48
49813;BME280;35706;52.100;5.056;2023-07-13T02:33:52;101294.94;;;16.98;90.50
49813;BME280;35706;52.100;5.056;2023-07-13T02:34:53;101300.56;;;17.12;90.20
49813;BME280;35706;52.100;5.056;2023-07-13T02:35:53;101302.25;;;17.13;89.90
49813;BME280;35706;52.100;5.056;2023-07-13T02:36:55;101299.91;;;17.18;89.33
49813;BME280;35706;52.100;5.056;2023-07-13T02:37:56;101302.41;;;17.11;89.95
49813;BME280;35706;52.100;5.056;2023-07-13T02:38:59;101306.19;;;17.25;89.63
49813;BME280;35706;52.100;5.056;2023-07-13T02:40:01;101303.22;;;17.12;90.45
49813;BME280;35706;52.100;5.056;2023-07-13T02:41:08;101293.09;;;17.23;89.76
49813;BME280;35706;52.100;5.056;2023-07-13T02:42:09;101301.59;;;17.11;90.59
49813;BME280;35706;52.100;5.056;2023-07-13T02:43:09;101307.41;;;16.98;91.24
49813;BME280;35706;52.100;5.056;2023-07-13T02:44:12;101319.69;;;17.07;91.09
49813;BME280;35706;52.100;5.056;2023-07-13T02:45:13;101308.53;;;17.03;91.23
49813;BME280;35706;52.100;5.056;2023-07-13T02:46:14;101308.03;;;17.16;90.83
49813;BME280;35706;52.100;5.056;2023-07-13T02:47:14;101307.06;;;17.17;90.95
49813;BME280;35706;52.100;5.056;2023-07-13T02:48:15;101308.53;;;17.12;91.27
49813;BME280;35706;52.100;5.056;2023-07-13T02:49:15;101302.72;;;17.24;90.81
49813;BME280;35706;52.100;5.056;2023-07-13T02:50:16;101304.72;;;17.22;91.01
49813;BME280;35706;52.100;5.056;2023-07-13T02:51:16;101302.56;;;17.01;91.94
49813;BME280;35706;52.100;5.056;2023-07-13T02:52:17;101297.59;;;17.06;91.93
49813;BME280;35706;52.100;5.056;2023-07-13T02:53:17;101300.56;;;17.12;91.65
49813;BME280;35706;52.100;5.056;2023-07-13T02:54:18;101303.06;;;17.21;91.21
49813;BME280;35706;52.100;5.056;2023-07-13T02:55:18;101301.22;;;17.30;90.40
49813;BME280;35706;52.100;5.056;2023-07-13T02:56:27;101312.03;;;17.12;92.06
49813;BME280;35706;52.100;5.056;2023-07-13T02:57:28;101305.22;;;17.18;91.60
49813;BME280;35706;52.100;5.056;2023-07-13T02:58:28;101302.06;;;17.14;91.46
49813;BME280;35706;52.100;5.056;2023-07-13T02:59:29;101300.06;;;17.08;92.20
49813;BME280;35706;52.100;5.056;2023-07-13T03:00:29;101299.38;;;17.30;90.50
49813;BME280;35706;52.100;5.056;2023-07-13T03:01:29;101307.41;;;16.98;92.16
49813;BME280;35706;52.100;5.056;2023-07-13T03:02:30;101294.13;;;16.98;92.83
49813;BME280;35706;52.100;5.056;2023-07-13T03:03:30;101301.91;;;16.99;92.76
49813;BME280;35706;52.100;5.056;2023-07-13T03:04:31;101301.91;;;16.75;93.33
49813;BME280;35706;52.100;5.056;2023-07-13T03:05:31;101301.28;;;16.81;93.62
49813;BME280;35706;52.100;5.056;2023-07-13T03:06:32;101304.56;;;16.91;92.86
49813;BME280;35706;52.100;5.056;2023-07-13T03:07:33;101302.59;;;16.85;93.56
49813;BME280;35706;52.100;5.056;2023-07-13T03:08:34;101303.44;;;16.94;92.95
49813;BME280;35706;52.100;5.056;2023-07-13T03:09:35;101308.38;;;17.05;92.49
49813;BME280;35706;52.100;5.056;2023-07-13T03:10:35;101307.22;;;16.99;92.60
49813;BME280;35706;52.100;5.056;2023-07-13T03:11:36;101310.06;;;17.06;92.24
49813;BME280;35706;52.100;5.056;2023-07-13T03:12:36;101304.25;;;17.11;91.92
49813;BME280;35706;52.100;5.056;2023-07-13T03:13:38;101318.00;;;17.14;91.65
49813;BME280;35706;52.100;5.056;2023-07-13T03:14:38;101312.72;;;16.98;91.97
49813;BME280;35706;52.100;5.056;2023-07-13T03:15:39;101322.50;;;16.81;92.46
49813;BME280;35706;52.100;5.056;2023-07-13T03:16:39;101316.13;;;16.65;93.43
49813;BME280;35706;52.100;5.056;2023-07-13T03:17:40;101315.31;;;16.73;93.50
49813;BME280;35706;52.100;5.056;2023-07-13T03:18:41;101308.22;;;16.90;92.14
49813;BME280;35706;52.100;5.056;2023-07-13T03:19:42;101308.22;;;16.82;92.73
49813;BME280;35706;52.100;5.056;2023-07-13T03:20:44;101305.88;;;16.95;91.96
49813;BME280;35706;52.100;5.056;2023-07-13T03:21:44;101303.06;;;17.05;91.44
49813;BME280;35706;52.100;5.056;2023-07-13T03:22:45;101303.25;;;16.95;91.75
49813;BME280;35706;52.100;5.056;2023-07-13T03:23:45;101299.44;;;16.89;91.77
49813;BME280;35706;52.100;5.056;2023-07-13T03:24:46;101297.44;;;16.92;92.20
49813;BME280;35706;52.100;5.056;2023-07-13T03:25:46;101298.94;;;16.94;91.86
49813;BME280;35706;52.100;5.056;2023-07-13T03:26:47;101296.28;;;17.02;91.51
49813;BME280;35706;52.100;5.056;2023-07-13T03:27:47;101298.13;;;16.85;92.49
49813;BME280;35706;52.100;5.056;2023-07-13T03:28:48;101310.19;;;16.80;92.64
49813;BME280;35706;52.100;5.056;2023-07-13T03:29:49;101314.19;;;16.84;92.72
49813;BME280;35706;52.100;5.056;2023-07-13T03:30:59;101309.22;;;16.97;91.65
49813;BME280;35706;52.100;5.056;2023-07-13T03:31:59;101313.69;;;17.05;91.56
49813;BME280;35706;52.100;5.056;2023-07-13T03:33:00;101317.84;;;16.91;91.86
49813;BME280;35706;52.100;5.056;2023-07-13T03:34:00;101319.66;;;16.82;92.57
49813;BME280;35706;52.100;5.056;2023-07-13T03:35:01;101325.50;;;17.02;91.26
49813;BME280;35706;52.100;5.056;2023-07-13T03:36:02;101323.16;;;17.16;90.43
49813;BME280;35706;52.100;5.056;2023-07-13T03:37:03;101319.84;;;17.14;90.84
49813;BME280;35706;52.100;5.056;2023-07-13T03:38:04;101324.16;;;16.90;91.97
49813;BME280;35706;52.100;5.056;2023-07-13T03:39:05;101320.50;;;16.91;91.86
49813;BME280;35706;52.100;5.056;2023-07-13T03:40:09;101322.84;;;16.94;91.77
49813;BME280;35706;52.100;5.056;2023-07-13T03:41:10;101323.19;;;16.83;91.95
49813;BME280;35706;52.100;5.056;2023-07-13T03:42:10;101319.00;;;17.13;90.80
49813;BME280;35706;52.100;5.056;2023-07-13T03:43:11;101319.63;;;16.74;93.05
49813;BME280;35706;52.100;5.056;2023-07-13T03:44:11;101328.06;;;16.61;93.87
49813;BME280;35706;52.100;5.056;2023-07-13T03:45:12;101318.59;;;16.51;94.79
49813;BME280;35706;52.100;5.056;2023-07-13T03:46:12;101325.44;;;16.53;94.90
49813;BME280;35706;52.100;5.056;2023-07-13T03:47:12;101326.94;;;16.72;93.81
49813;BME280;35706;52.100;5.056;2023-07-13T03:48:13;101325.94;;;16.73;93.84
49813;BME280;35706;52.100;5.056;2023-07-13T03:49:14;101328.09;;;16.69;94.49
49813;BME280;35706;52.100;5.056;2023-07-13T03:50:14;101323.44;;;16.72;94.50
49813;BME280;35706;52.100;5.056;2023-07-13T03:51:16;101331.47;;;16.88;93.49
49813;BME280;35706;52.100;5.056;2023-07-13T03:52:17;101329.63;;;16.88;93.15
49813;BME280;35706;52.100;5.056;2023-07-13T03:53:17;101325.13;;;16.64;94.80
49813;BME280;35706;52.100;5.056;2023-07-13T03:54:19;101322.31;;;16.91;93.44
49813;BME280;35706;52.100;5.056;2023-07-13T03:55:19;101328.25;;;16.76;94.30
49813;BME280;35706;52.100;5.056;2023-07-13T03:56:20;101326.78;;;16.74;94.58
49813;BME280;35706;52.100;5.056;2023-07-13T03:57:20;101336.34;;;16.42;96.47
49813;BME280;35706;52.100;5.056;2023-07-13T03:58:33;101335.00;;;16.38;97.42
49813;BME280;35706;52.100;5.056;2023-07-13T03:59:34;101325.13;;;16.64;95.76
49813;BME280;35706;52.100;5.056;2023-07-13T04:00:34;101331.22;;;16.57;96.42
49813;BME280;35706;52.100;5.056;2023-07-13T04:01:35;101331.75;;;16.60;96.17
49813;BME280;35706;52.100;5.056;2023-07-13T04:02:35;101334.72;;;16.49;96.90
49813;BME280;35706;52.100;5.056;2023-07-13T04:03:37;101338.00;;;16.43;97.34
49813;BME280;35706;52.100;5.056;2023-07-13T04:04:38;101337.03;;;16.52;97.50
49813;BME280;35706;52.100;5.056;2023-07-13T04:05:40;101352.13;;;16.52;96.91
49813;BME280;35706;52.100;5.056;2023-07-13T04:06:41;101344.69;;;16.55;97.01
49813;BME280;35706;52.100;5.056;2023-07-13T04:07:41;101352.66;;;16.55;96.55
49813;BME280;35706;52.100;5.056;2023-07-13T04:08:42;101351.31;;;16.51;97.43
49813;BME280;35706;52.100;5.056;2023-07-13T04:09:42;101351.78;;;16.46;97.31
49813;BME280;35706;52.100;5.056;2023-07-13T04:10:43;101343.81;;;16.46;98.07
49813;BME280;35706;52.100;5.056;2023-07-13T04:11:43;101344.28;;;16.42;98.15
49813;BME280;35706;52.100;5.056;2023-07-13T04:12:44;101350.13;;;16.45;98.06
49813;BME280;35706;52.100;5.056;2023-07-13T04:13:45;101347.63;;;16.44;98.34
49813;BME280;35706;52.100;5.056;2023-07-13T04:14:46;101350.22;;;16.27;99.23
49813;BME280;35706;52.100;5.056;2023-07-13T04:15:46;101355.06;;;16.32;99.28
49813;BME280;35706;52.100;5.056;2023-07-13T04:16:47;101343.94;;;16.28;99.40
49813;BME280;35706;52.100;5.056;2023-07-13T04:17:47;101341.84;;;16.57;97.79
49813;BME280;35706;52.100;5.056;2023-07-13T04:18:48;101353.28;;;16.49;97.73
49813;BME280;35706;52.100;5.056;2023-07-13T04:19:49;101351.94;;;16.45;98.20
49813;BME280;35706;52.100;5.056;2023-07-13T04:20:50;101349.34;;;16.78;96.68
49813;BME280;35706;52.100;5.056;2023-07-13T04:21:50;101346.22;;;16.91;95.57
49813;BME280;35706;52.100;5.056;2023-07-13T04:22:52;101351.13;;;16.61;97.06
49813;BME280;35706;52.100;5.056;2023-07-13T04:23:53;101356.28;;;16.62;97.38
49813;BME280;35706;52.100;5.056;2023-07-13T04:24:54;101354.75;;;16.43;98.80
49813;BME280;35706;52.100;5.056;2023-07-13T04:25:54;101357.84;;;16.22;100.00
49813;BME280;35706;52.100;5.056;2023-07-13T04:26:55;101357.22;;;16.37;100.00
49813;BME280;35706;52.100;5.056;2023-07-13T04:27:59;101353.25;;;16.41;99.86
49813;BME280;35706;52.100;5.056;2023-07-13T04:28:59;101350.13;;;16.45;99.59
49813;BME280;35706;52.100;5.056;2023-07-13T04:30:00;101343.84;;;16.63;98.63
49813;BME280;35706;52.100;5.056;2023-07-13T04:31:00;101360.25;;;16.58;98.60
49813;BME280;35706;52.100;5.056;2023-07-13T04:32:01;101351.00;;;16.79;97.42
49813;BME280;35706;52.100;5.056;2023-07-13T04:33:01;101355.75;;;16.51;99.10
49813;BME280;35706;52.100;5.056;2023-07-13T04:34:02;101355.59;;;16.52;99.34
49813;BME280;35706;52.100;5.056;2023-07-13T04:35:03;101359.06;;;16.44;100.00
49813;BME280;35706;52.100;5.056;2023-07-13T04:36:05;101358.38;;;16.42;100.00
49813;BME280;35706;52.100;5.056;2023-07-13T04:37:06;101357.09;;;16.55;99.52
49813;BME280;35706;52.100;5.056;2023-07-13T04:38:07;101352.16;;;16.76;98.12
49813;BME280;35706;52.100;5.056;2023-07-13T04:39:07;101360.16;;;17.01;95.43
49813;BME280;35706;52.100;5.056;2023-07-13T04:40:09;101361.94;;;16.76;98.21
49813;BME280;35706;52.100;5.056;2023-07-13T04:41:13;101365.59;;;16.75;98.51
49813;BME280;35706;52.100;5.056;2023-07-13T04:42:14;101373.69;;;16.57;100.00
49813;BME280;35706;52.100;5.056;2023-07-13T04:43:15;101367.91;;;16.53;100.00
49813;BME280;35706;52.100;5.056;2023-07-13T04:44:15;101357.94;;;16.63;100.00
49813;BME280;35706;52.100;5.056;2023-07-13T04:45:16;101370.06;;;16.74;98.93
49813;BME280;35706;52.100;5.056;2023-07-13T04:46:17;101365.75;;;16.65;100.00
49813;BME280;35706;52.100;5.056;2023-07-13T04:47:19;101354.97;;;16.66;100.00
49813;BME280;35706;52.100;5.056;2023-07-13T04:48:20;101363.09;;;16.65;100.00
49813;BME280;35706;52.100;5.056;2023-07-13T04:49:20;101367.63;;;16.81;99.19
49813;BME280;35706;52.100;5.056;2023-07-13T04:50:21;101370.03;;;16.49;100.00
49813;BME280;35706;52.100;5.056;2023-07-13T04:51:23;101361.25;;;16.49;100.00
49813;BME280;35706;52.100;5.056;2023-07-13T04:52:24;101368.19;;;16.50;100.00
49813;BME280;35706;52.100;5.056;2023-07-13T04:53:25;101362.59;;;16.69;100.00
49813;BME280;35706;52.100;5.056;2023-07-13T04:54:25;101364.38;;;16.53;100.00
49813;BME280;35706;52.100;5.056;2023-07-13T04:55:26;101369.69;;;16.53;100.00
49813;BME280;35706;52.100;5.056;2023-07-13T04:56:30;101365.91;;;16.55;100.00
49813;BME280;35706;52.100;5.056;2023-07-13T04:57:30;101356.16;;;16.72;100.00
49813;BME280;35706;52.100;5.056;2023-07-13T04:58:33;101367.25;;;16.67;100.00
49813;BME280;35706;52.100;5.056;2023-07-13T04:59:34;101367.25;;;16.76;100.00
49813;BME280;35706;52.100;5.056;2023-07-13T05:00:35;101371.88;;;16.65;100.00
49813;BME280;35706;52.100;5.056;2023-07-13T05:01:35;101363.63;;;16.77;100.00
49813;BME280;35706;52.100;5.056;2023-07-13T05:02:37;101364.28;;;16.79;100.00
49813;BME280;35706;52.100;5.056;2023-07-13T05:03:38;101364.28;;;16.79;100.00
49813;BME280;35706;52.100;5.056;2023-07-13T05:04:38;101370.78;;;16.84;100.00
49813;BME280;35706;52.100;5.056;2023-07-13T05:05:39;101358.63;;;16.74;100.00
49813;BME280;35706;52.100;5.056;2023-07-13T05:06:39;101361.16;;;16.83;100.00
49813;BME280;35706;52.100;5.056;2023-07-13T05:07:40;101365.00;;;16.89;100.00
49813;BME280;35706;52.100;5.056;2023-07-13T05:08:40;101367.63;;;16.81;100.00
49813;BME280;35706;52.100;5.056;2023-07-13T05:09:41;101373.38;;;16.76;100.00
49813;BME280;35706;52.100;5.056;2023-07-13T05:10:41;101368.50;;;16.98;100.00
49813;BME280;35706;52.100;5.056;2023-07-13T05:11:42;101369.66;;;16.87;100.00
49813;BME280;35706;52.100;5.056;2023-07-13T05:12:43;101374.94;;;16.87;100.00
49813;BME280;35706;52.100;5.056;2023-07-13T05:13:43;101387.16;;;16.72;100.00
49813;BME280;35706;52.100;5.056;2023-07-13T05:14:44;101379.56;;;16.77;100.00
49813;BME280;35706;52.100;5.056;2023-07-13T05:15:45;101380.88;;;16.73;100.00
49813;BME280;35706;52.100;5.056;2023-07-13T05:16:45;101381.91;;;16.88;100.00
49813;BME280;35706;52.100;5.056;2023-07-13T05:17:47;101374.59;;;16.90;100.00
49813;BME280;35706;52.100;5.056;2023-07-13T05:18:47;101383.59;;;16.89;100.00
49813;BME280;35706;52.100;5.056;2023-07-13T05:19:47;101374.91;;;16.79;100.00